sensor_id;sensor_type;location;lat;lon;timestamp;temperature;humidity
64634;DHT22;51043;52.406;9.690;2023-03-21T00:00:56;8.10;99.90
64634;DHT22;51043;52.406;9.690;2023-03-21T00:03:24;8.10;99.90
64634;DHT22;51043;52.406;9.690;2023-03-21T00:05:52;8.10;99.90
64634;DHT22;51043;52.406;9.690;2023-03-21T00:08:21;8.10;99.90
64634;DHT22;51043;52.406;9.690;2023-03-21T00:10:58;8.10;99.90
64634;DHT22;51043;52.406;9.690;2023-03-21T00:13:27;8.10;99.90
64634;DHT22;51043;52.406;9.690;2023-03-21T00:16:09;8.10;99.90
64634;DHT22;51043;52.406;9.690;2023-03-21T00:18:44;8.20;99.90
64634;DHT22;51043;52.406;9.690;2023-03-21T00:21:18;8.20;99.90
64634;DHT22;51043;52.406;9.690;2023-03-21T00:24:06;8.20;99.90
64634;DHT22;51043;52.406;9.690;2023-03-21T00:26:33;8.20;99.90
64634;DHT22;51043;52.406;9.690;2023-03-21T00:29:00;8.20;99.90
64634;DHT22;51043;52.406;9.690;2023-03-21T00:31:27;8.30;99.90
64634;DHT22;51043;52.406;9.690;2023-03-21T00:33:55;8.30;99.90
64634;DHT22;51043;52.406;9.690;2023-03-21T00:36:22;8.30;99.90
64634;DHT22;51043;52.406;9.690;2023-03-21T00:38:51;8.30;99.90
64634;DHT22;51043;52.406;9.690;2023-03-21T00:41:18;8.30;99.90
64634;DHT22;51043;52.406;9.690;2023-03-21T00:44:04;8.30;99.90
64634;DHT22;51043;52.406;9.690;2023-03-21T00:46:31;8.20;99.90
64634;DHT22;51043;52.406;9.690;2023-03-21T00:49:11;8.30;99.90
64634;DHT22;51043;52.406;9.690;2023-03-21T00:51:39;7.90;99.90
64634;DHT22;51043;52.406;9.690;2023-03-21T00:54:10;8.40;99.90
64634;DHT22;51043;52.406;9.690;2023-03-21T00:56:41;8.40;99.90
64634;DHT22;51043;52.406;9.690;2023-03-21T00:59:08;8.40;99.90
64634;DHT22;51043;52.406;9.690;2023-03-21T01:01:35;8.40;99.90
64634;DHT22;51043;52.406;9.690;2023-03-21T01:04:05;8.40;99.90
64634;DHT22;51043;52.406;9.690;2023-03-21T01:06:37;8.40;99.90
64634;DHT22;51043;52.406;9.690;2023-03-21T01:09:08;8.40;99.90
64634;DHT22;51043;52.406;9.690;2023-03-21T01:11:37;8.30;99.90
64634;DHT22;51043;52.406;9.690;2023-03-21T01:14:04;8.40;99.90
64634;DHT22;51043;52.406;9.690;2023-03-21T01:16:47;8.40;99.90
64634;DHT22;51043;52.406;9.690;2023-03-21T01:19:18;8.40;99.90
64634;DHT22;51043;52.406;9.690;2023-03-21T01:22:05;8.30;99.90
64634;DHT22;51043;52.406;9.690;2023-03-21T01:24:32;8.30;99.90
64634;DHT22;51043;52.406;9.690;2023-03-21T01:27:02;8.30;99.90
64634;DHT22;51043;52.406;9.690;2023-03-21T01:29:29;8.30;99.90
64634;DHT22;51043;52.406;9.690;2023-03-21T01:31:57;8.20;99.90
64634;DHT22;51043;52.406;9.690;2023-03-21T01:34:24;8.20;99.90
64634;DHT22;51043;52.406;9.690;2023-03-21T01:36:52;8.30;99.90
64634;DHT22;51043;52.406;9.690;2023-03-21T01:39:20;8.40;99.90
64634;DHT22;51043;52.406;9.690;2023-03-21T01:41:48;8.30;99.90
64634;DHT22;51043;52.406;9.690;2023-03-21T01:44:27;8.40;99.90
64634;DHT22;51043;52.406;9.690;2023-03-21T01:46:53;8.50;99.90
64634;DHT22;51043;52.406;9.690;2023-03-21T01:49:46;8.40;99.90
64634;DHT22;51043;52.406;9.690;2023-03-21T01:52:26;8.50;99.90
64634;DHT22;51043;52.406;9.690;2023-03-21T01:55:11;8.50;99.90
64634;DHT22;51043;52.406;9.690;2023-03-21T01:57:47;8.50;99.90
64634;DHT22;51043;52.406;9.690;2023-03-21T02:00:32;8.40;99.90
64634;DHT22;51043;52.406;9.690;2023-03-21T02:03:17;8.40;99.90
64634;DHT22;51043;52.406;9.690;2023-03-21T02:06:11;8.40;99.90
64634;DHT22;51043;52.406;9.690;2023-03-21T02:08:44;8.40;99.90
64634;DHT22;51043;52.406;9.690;2023-03-21T02:11:15;8.40;99.90
64634;DHT22;51043;52.406;9.690;2023-03-21T02:13:42;8.40;99.90
64634;DHT22;51043;52.406;9.690;2023-03-21T02:16:18;8.50;99.90
64634;DHT22;51043;52.406;9.690;2023-03-21T02:19:00;8.50;99.90
64634;DHT22;51043;52.406;9.690;2023-03-21T02:31:05;8.60;99.90
64634;DHT22;51043;52.406;9.690;2023-03-21T02:34:16;8.60;99.90
64634;DHT22;51043;52.406;9.690;2023-03-21T02:42:09;8.70;99.90
64634;DHT22;51043;52.406;9.690;2023-03-21T02:44:59;8.60;99.90
64634;DHT22;51043;52.406;9.690;2023-03-21T02:47:40;8.60;99.90
64634;DHT22;51043;52.406;9.690;2023-03-21T02:50:13;8.60;99.90
64634;DHT22;51043;52.406;9.690;2023-03-21T02:52:45;8.70;99.90
64634;DHT22;51043;52.406;9.690;2023-03-21T02:55:17;8.70;99.90
64634;DHT22;51043;52.406;9.690;2023-03-21T02:57:53;8.70;99.90
64634;DHT22;51043;52.406;9.690;2023-03-21T03:00:25;8.70;99.90
64634;DHT22;51043;52.406;9.690;2023-03-21T03:02:53;8.80;99.90
64634;DHT22;51043;52.406;9.690;2023-03-21T03:05:39;8.80;99.90
64634;DHT22;51043;52.406;9.690;2023-03-21T03:08:25;8.80;99.90
64634;DHT22;51043;52.406;9.690;2023-03-21T03:17:42;8.70;99.90
64634;DHT22;51043;52.406;9.690;2023-03-21T03:20:33;8.70;99.90
64634;DHT22;51043;52.406;9.690;2023-03-21T03:23:23;8.80;99.90
64634;DHT22;51043;52.406;9.690;2023-03-21T03:25:57;8.70;99.90
64634;DHT22;51043;52.406;9.690;2023-03-21T03:28:30;8.70;99.90
64634;DHT22;51043;52.406;9.690;2023-03-21T03:31:00;8.70;99.90
64634;DHT22;51043;52.406;9.690;2023-03-21T03:33:43;8.70;99.90
64634;DHT22;51043;52.406;9.690;2023-03-21T03:36:14;8.80;99.90
64634;DHT22;51043;52.406;9.690;2023-03-21T03:39:05;8.70;99.90
64634;DHT22;51043;52.406;9.690;2023-03-21T03:41:55;8.70;99.90
64634;DHT22;51043;52.406;9.690;2023-03-21T03:44:47;8.70;99.90
64634;DHT22;51043;52.406;9.690;2023-03-21T03:47:41;8.70;99.90
64634;DHT22;51043;52.406;9.690;2023-03-21T03:50:47;8.70;99.90
64634;DHT22;51043;52.406;9.690;2023-03-21T03:53:22;8.70;99.90
64634;DHT22;51043;52.406;9.690;2023-03-21T03:55:54;8.70;99.90
64634;DHT22;51043;52.406;9.690;2023-03-21T03:58:23;8.70;99.90
64634;DHT22;51043;52.406;9.690;2023-03-21T04:01:01;8.60;99.90
64634;DHT22;51043;52.406;9.690;2023-03-21T04:03:28;8.70;99.90
64634;DHT22;51043;52.406;9.690;2023-03-21T04:06:06;8.80;99.90
64634;DHT22;51043;52.406;9.690;2023-03-21T04:08:33;8.70;99.90
64634;DHT22;51043;52.406;9.690;2023-03-21T04:11:03;8.70;99.90
64634;DHT22;51043;52.406;9.690;2023-03-21T04:13:34;8.70;99.90
64634;DHT22;51043;52.406;9.690;2023-03-21T04:16:11;8.60;99.90
64634;DHT22;51043;52.406;9.690;2023-03-21T04:18:40;8.60;99.90
64634;DHT22;51043;52.406;9.690;2023-03-21T04:21:09;8.60;99.90
64634;DHT22;51043;52.406;9.690;2023-03-21T04:23:37;8.60;99.90
64634;DHT22;51043;52.406;9.690;2023-03-21T04:26:04;8.50;99.90
64634;DHT22;51043;52.406;9.690;2023-03-21T04:28:38;8.60;99.90
64634;DHT22;51043;52.406;9.690;2023-03-21T04:31:17;8.60;99.90
64634;DHT22;51043;52.406;9.690;2023-03-21T04:33:53;8.60;99.90
64634;DHT22;51043;52.406;9.690;2023-03-21T04:36:23;8.70;99.90
64634;DHT22;51043;52.406;9.690;2023-03-21T04:39:06;8.70;99.90
64634;DHT22;51043;52.406;9.690;2023-03-21T04:41:39;8.70;99.90
64634;DHT22;51043;52.406;9.690;2023-03-21T04:44:07;8.70;99.90
64634;DHT22;51043;52.406;9.690;2023-03-21T04:46:35;8.70;99.90
64634;DHT22;51043;52.406;9.690;2023-03-21T04:49:02;8.70;99.90
64634;DHT22;51043;52.406;9.690;2023-03-21T04:51:29;8.70;99.90
64634;DHT22;51043;52.406;9.690;2023-03-21T04:53:57;8.60;99.90
64634;DHT22;51043;52.406;9.690;2023-03-21T04:56:26;8.60;99.90
64634;DHT22;51043;52.406;9.690;2023-03-21T04:58:59;8.60;99.90
64634;DHT22;51043;52.406;9.690;2023-03-21T05:01:27;8.60;99.90
64634;DHT22;51043;52.406;9.690;2023-03-21T05:03:58;8.60;99.90
64634;DHT22;51043;52.406;9.690;2023-03-21T05:06:26;8.50;99.90
64634;DHT22;51043;52.406;9.690;2023-03-21T05:08:54;8.60;99.90
64634;DHT22;51043;52.406;9.690;2023-03-21T05:11:27;8.50;99.90
64634;DHT22;51043;52.406;9.690;2023-03-21T05:13:57;8.50;99.90
64634;DHT22;51043;52.406;9.690;2023-03-21T05:16:26;8.60;99.90
64634;DHT22;51043;52.406;9.690;2023-03-21T05:18:57;8.70;99.90
64634;DHT22;51043;52.406;9.690;2023-03-21T05:21:33;8.70;99.90
64634;DHT22;51043;52.406;9.690;2023-03-21T05:24:17;8.70;99.90
64634;DHT22;51043;52.406;9.690;2023-03-21T05:26:45;8.80;99.90
64634;DHT22;51043;52.406;9.690;2023-03-21T05:29:23;8.80;99.90
64634;DHT22;51043;52.406;9.690;2023-03-21T05:32:00;8.70;99.90
64634;DHT22;51043;52.406;9.690;2023-03-21T05:34:28;8.70;99.90
64634;DHT22;51043;52.406;9.690;2023-03-21T05:36:58;8.80;99.90
64634;DHT22;51043;52.406;9.690;2023-03-21T05:39:34;8.80;99.90
64634;DHT22;51043;52.406;9.690;2023-03-21T05:42:22;8.80;99.90
64634;DHT22;51043;52.406;9.690;2023-03-21T05:44:49;8.90;99.90
64634;DHT22;51043;52.406;9.690;2023-03-21T05:47:21;8.90;99.90
64634;DHT22;51043;52.406;9.690;2023-03-21T05:49:50;8.90;99.90
64634;DHT22;51043;52.406;9.690;2023-03-21T05:52:18;9.00;99.90
64634;DHT22;51043;52.406;9.690;2023-03-21T05:54:45;9.00;99.90
64634;DHT22;51043;52.406;9.690;2023-03-21T05:57:12;9.00;99.90
64634;DHT22;51043;52.406;9.690;2023-03-21T05:59:51;9.00;99.90
64634;DHT22;51043;52.406;9.690;2023-03-21T06:02:19;9.00;99.90
64634;DHT22;51043;52.406;9.690;2023-03-21T06:04:47;9.20;99.90
64634;DHT22;51043;52.406;9.690;2023-03-21T06:07:15;9.10;99.90
64634;DHT22;51043;52.406;9.690;2023-03-21T06:09:42;9.10;99.90
64634;DHT22;51043;52.406;9.690;2023-03-21T06:12:10;9.80;99.90
64634;DHT22;51043;52.406;9.690;2023-03-21T06:14:57;9.10;99.90
64634;DHT22;51043;52.406;9.690;2023-03-21T06:17:49;9.20;99.90
64634;DHT22;51043;52.406;9.690;2023-03-21T06:20:16;9.20;99.90
64634;DHT22;51043;52.406;9.690;2023-03-21T06:22:48;9.20;99.90
64634;DHT22;51043;52.406;9.690;2023-03-21T06:25:15;9.20;99.90
64634;DHT22;51043;52.406;9.690;2023-03-21T06:27:42;9.20;99.90
64634;DHT22;51043;52.406;9.690;2023-03-21T06:30:10;9.40;99.90
64634;DHT22;51043;52.406;9.690;2023-03-21T06:32:50;9.20;99.90
64634;DHT22;51043;52.406;9.690;2023-03-21T06:35:21;9.20;99.90
64634;DHT22;51043;52.406;9.690;2023-03-21T06:37:48;9.20;99.90
64634;DHT22;51043;52.406;9.690;2023-03-21T06:40:17;9.10;99.90
64634;DHT22;51043;52.406;9.690;2023-03-21T06:42:47;9.00;99.90
64634;DHT22;51043;52.406;9.690;2023-03-21T06:45:14;9.00;99.90
64634;DHT22;51043;52.406;9.690;2023-03-21T06:47:41;9.00;99.90
64634;DHT22;51043;52.406;9.690;2023-03-21T06:50:17;8.90;99.90
64634;DHT22;51043;52.406;9.690;2023-03-21T06:52:44;9.00;99.90
64634;DHT22;51043;52.406;9.690;2023-03-21T06:55:13;9.10;99.90
64634;DHT22;51043;52.406;9.690;2023-03-21T06:57:40;9.10;99.90
64634;DHT22;51043;52.406;9.690;2023-03-21T07:00:08;9.20;99.90
64634;DHT22;51043;52.406;9.690;2023-03-21T07:02:40;9.20;99.90
64634;DHT22;51043;52.406;9.690;2023-03-21T07:05:15;9.30;99.90
64634;DHT22;51043;52.406;9.690;2023-03-21T07:07:42;9.30;99.90
64634;DHT22;51043;52.406;9.690;2023-03-21T07:10:09;9.30;99.90
64634;DHT22;51043;52.406;9.690;2023-03-21T07:12:48;9.40;99.90
64634;DHT22;51043;52.406;9.690;2023-03-21T07:15:33;9.40;99.90
64634;DHT22;51043;52.406;9.690;2023-03-21T07:18:05;9.60;99.90
64634;DHT22;51043;52.406;9.690;2023-03-21T07:20:32;9.50;99.90
64634;DHT22;51043;52.406;9.690;2023-03-21T07:22:59;9.60;99.90
64634;DHT22;51043;52.406;9.690;2023-03-21T07:25:27;9.60;99.90
64634;DHT22;51043;52.406;9.690;2023-03-21T07:27:54;9.70;99.90
64634;DHT22;51043;52.406;9.690;2023-03-21T07:30:21;9.80;99.90
64634;DHT22;51043;52.406;9.690;2023-03-21T07:32:48;9.90;99.90
64634;DHT22;51043;52.406;9.690;2023-03-21T07:35:16;10.10;99.90
64634;DHT22;51043;52.406;9.690;2023-03-21T07:37:43;10.30;99.90
64634;DHT22;51043;52.406;9.690;2023-03-21T07:40:14;10.50;99.90
64634;DHT22;51043;52.406;9.690;2023-03-21T07:42:41;10.50;99.90
64634;DHT22;51043;52.406;9.690;2023-03-21T07:45:11;10.70;99.90
64634;DHT22;51043;52.406;9.690;2023-03-21T07:47:41;10.80;99.90
64634;DHT22;51043;52.406;9.690;2023-03-21T07:50:08;10.80;99.90
64634;DHT22;51043;52.406;9.690;2023-03-21T07:52:35;10.90;99.90
64634;DHT22;51043;52.406;9.690;2023-03-21T07:55:02;10.90;99.90
64634;DHT22;51043;52.406;9.690;2023-03-21T07:57:29;11.00;99.90
64634;DHT22;51043;52.406;9.690;2023-03-21T07:59:57;11.00;99.90
64634;DHT22;51043;52.406;9.690;2023-03-21T08:02:24;11.00;99.90
64634;DHT22;51043;52.406;9.690;2023-03-21T08:04:50;11.00;99.90
64634;DHT22;51043;52.406;9.690;2023-03-21T08:07:21;11.00;99.90
64634;DHT22;51043;52.406;9.690;2023-03-21T08:09:48;10.80;99.90
64634;DHT22;51043;52.406;9.690;2023-03-21T08:12:15;10.80;99.90
64634;DHT22;51043;52.406;9.690;2023-03-21T08:14:42;10.80;99.90
64634;DHT22;51043;52.406;9.690;2023-03-21T08:17:09;10.80;99.90
64634;DHT22;51043;52.406;9.690;2023-03-21T08:19:36;10.70;99.90
64634;DHT22;51043;52.406;9.690;2023-03-21T08:22:07;10.60;99.90
64634;DHT22;51043;52.406;9.690;2023-03-21T08:24:33;10.60;99.90
64634;DHT22;51043;52.406;9.690;2023-03-21T08:27:01;10.60;99.90
64634;DHT22;51043;52.406;9.690;2023-03-21T08:29:32;10.70;99.90
64634;DHT22;51043;52.406;9.690;2023-03-21T08:31:59;10.70;99.90
64634;DHT22;51043;52.406;9.690;2023-03-21T08:34:26;10.70;99.90
64634;DHT22;51043;52.406;9.690;2023-03-21T08:36:53;10.70;99.90
64634;DHT22;51043;52.406;9.690;2023-03-21T08:39:23;10.70;99.90
64634;DHT22;51043;52.406;9.690;2023-03-21T08:41:50;10.70;99.90
64634;DHT22;51043;52.406;9.690;2023-03-21T08:44:17;10.60;99.90
64634;DHT22;51043;52.406;9.690;2023-03-21T08:46:52;10.70;99.90
64634;DHT22;51043;52.406;9.690;2023-03-21T08:49:19;10.80;99.90
64634;DHT22;51043;52.406;9.690;2023-03-21T08:51:46;10.90;99.90
64634;DHT22;51043;52.406;9.690;2023-03-21T08:54:19;10.90;99.90
64634;DHT22;51043;52.406;9.690;2023-03-21T08:56:46;11.00;99.90
64634;DHT22;51043;52.406;9.690;2023-03-21T08:59:13;11.00;99.90
64634;DHT22;51043;52.406;9.690;2023-03-21T09:01:40;11.00;99.90
64634;DHT22;51043;52.406;9.690;2023-03-21T09:04:07;11.10;99.90
64634;DHT22;51043;52.406;9.690;2023-03-21T09:06:37;11.20;99.90
64634;DHT22;51043;52.406;9.690;2023-03-21T09:09:06;11.30;99.90
64634;DHT22;51043;52.406;9.690;2023-03-21T09:11:34;11.40;99.90
64634;DHT22;51043;52.406;9.690;2023-03-21T09:14:01;11.40;99.90
64634;DHT22;51043;52.406;9.690;2023-03-21T09:16:28;11.40;99.90
64634;DHT22;51043;52.406;9.690;2023-03-21T09:18:55;11.50;99.90
64634;DHT22;51043;52.406;9.690;2023-03-21T09:21:25;11.60;99.90
64634;DHT22;51043;52.406;9.690;2023-03-21T09:23:53;11.80;99.90
64634;DHT22;51043;52.406;9.690;2023-03-21T09:26:24;11.90;99.90
64634;DHT22;51043;52.406;9.690;2023-03-21T09:28:54;12.00;99.90
64634;DHT22;51043;52.406;9.690;2023-03-21T09:31:22;11.90;99.90
64634;DHT22;51043;52.406;9.690;2023-03-21T09:33:52;12.00;99.90
64634;DHT22;51043;52.406;9.690;2023-03-21T09:36:24;11.70;99.90
64634;DHT22;51043;52.406;9.690;2023-03-21T09:38:56;12.00;99.90
64634;DHT22;51043;52.406;9.690;2023-03-21T09:46:54;12.40;99.90
64634;DHT22;51043;52.406;9.690;2023-03-21T09:49:30;12.60;99.90
64634;DHT22;51043;52.406;9.690;2023-03-21T09:52:00;12.60;99.90
64634;DHT22;51043;52.406;9.690;2023-03-21T09:54:40;12.50;99.90
64634;DHT22;51043;52.406;9.690;2023-03-21T09:59:58;12.30;99.90
64634;DHT22;51043;52.406;9.690;2023-03-21T10:02:40;12.10;99.90
64634;DHT22;51043;52.406;9.690;2023-03-21T10:05:20;12.00;99.90
64634;DHT22;51043;52.406;9.690;2023-03-21T10:08:08;11.90;99.90
64634;DHT22;51043;52.406;9.690;2023-03-21T10:10:42;11.80;99.90
64634;DHT22;51043;52.406;9.690;2023-03-21T10:13:19;11.80;99.90
64634;DHT22;51043;52.406;9.690;2023-03-21T10:15:48;11.80;99.90
64634;DHT22;51043;52.406;9.690;2023-03-21T10:18:23;11.80;99.90
64634;DHT22;51043;52.406;9.690;2023-03-21T10:20:51;11.80;99.90
64634;DHT22;51043;52.406;9.690;2023-03-21T10:23:20;11.60;99.90
64634;DHT22;51043;52.406;9.690;2023-03-21T10:25:51;11.50;99.90
64634;DHT22;51043;52.406;9.690;2023-03-21T10:28:26;11.40;99.90
64634;DHT22;51043;52.406;9.690;2023-03-21T10:31:01;11.40;99.90
64634;DHT22;51043;52.406;9.690;2023-03-21T10:33:36;11.40;99.90
64634;DHT22;51043;52.406;9.690;2023-03-21T10:39:04;11.60;99.90
64634;DHT22;51043;52.406;9.690;2023-03-21T10:41:33;11.60;99.90
64634;DHT22;51043;52.406;9.690;2023-03-21T10:44:16;11.70;99.90
64634;DHT22;51043;52.406;9.690;2023-03-21T10:47:09;11.70;99.90
64634;DHT22;51043;52.406;9.690;2023-03-21T10:49:37;11.80;99.90
64634;DHT22;51043;52.406;9.690;2023-03-21T10:52:26;11.60;99.90
64634;DHT22;51043;52.406;9.690;2023-03-21T10:55:26;11.60;99.90
64634;DHT22;51043;52.406;9.690;2023-03-21T10:58:15;11.60;99.90
64634;DHT22;51043;52.406;9.690;2023-03-21T11:00:45;11.60;99.90
64634;DHT22;51043;52.406;9.690;2023-03-21T11:03:41;11.50;99.90
64634;DHT22;51043;52.406;9.690;2023-03-21T11:06:25;11.30;99.90
64634;DHT22;51043;52.406;9.690;2023-03-21T11:08:55;11.30;99.90
64634;DHT22;51043;52.406;9.690;2023-03-21T11:11:32;11.30;99.90
64634;DHT22;51043;52.406;9.690;2023-03-21T11:14:03;11.20;99.90
64634;DHT22;51043;52.406;9.690;2023-03-21T11:16:41;11.20;99.90
64634;DHT22;51043;52.406;9.690;2023-03-21T11:19:25;11.20;99.90
64634;DHT22;51043;52.406;9.690;2023-03-21T11:21:56;11.00;99.90
64634;DHT22;51043;52.406;9.690;2023-03-21T11:24:27;10.80;99.90
64634;DHT22;51043;52.406;9.690;2023-03-21T11:26:55;10.90;99.90
64634;DHT22;51043;52.406;9.690;2023-03-21T11:29:39;10.80;99.90
64634;DHT22;51043;52.406;9.690;2023-03-21T11:32:20;10.80;99.90
64634;DHT22;51043;52.406;9.690;2023-03-21T11:34:56;10.80;99.90
64634;DHT22;51043;52.406;9.690;2023-03-21T11:37:33;10.90;99.90
64634;DHT22;51043;52.406;9.690;2023-03-21T11:40:20;10.90;99.90
64634;DHT22;51043;52.406;9.690;2023-03-21T11:42:50;10.90;99.90
64634;DHT22;51043;52.406;9.690;2023-03-21T11:45:23;10.90;99.90
64634;DHT22;51043;52.406;9.690;2023-03-21T11:47:53;10.90;99.90
64634;DHT22;51043;52.406;9.690;2023-03-21T11:50:34;10.90;99.90
64634;DHT22;51043;52.406;9.690;2023-03-21T11:53:26;10.90;99.90
64634;DHT22;51043;52.406;9.690;2023-03-21T12:07:26;10.70;99.90
64634;DHT22;51043;52.406;9.690;2023-03-21T12:13:02;10.70;99.90
64634;DHT22;51043;52.406;9.690;2023-03-21T12:16:04;10.80;99.90
64634;DHT22;51043;52.406;9.690;2023-03-21T12:21:40;10.80;99.90
64634;DHT22;51043;52.406;9.690;2023-03-21T12:24:26;10.80;99.90
64634;DHT22;51043;52.406;9.690;2023-03-21T12:32:33;10.90;99.90
64634;DHT22;51043;52.406;9.690;2023-03-21T12:41:08;11.00;99.90
64634;DHT22;51043;52.406;9.690;2023-03-21T12:43:41;11.00;99.90
64634;DHT22;51043;52.406;9.690;2023-03-21T12:46:17;11.10;99.90
64634;DHT22;51043;52.406;9.690;2023-03-21T12:51:37;11.10;99.90
64634;DHT22;51043;52.406;9.690;2023-03-21T12:54:34;11.10;99.90
64634;DHT22;51043;52.406;9.690;2023-03-21T12:57:20;11.10;99.90
64634;DHT22;51043;52.406;9.690;2023-03-21T12:59:59;11.20;99.90
64634;DHT22;51043;52.406;9.690;2023-03-21T13:05:32;11.30;99.90
64634;DHT22;51043;52.406;9.690;2023-03-21T13:08:14;11.30;99.90
64634;DHT22;51043;52.406;9.690;2023-03-21T13:10:44;11.30;99.90
64634;DHT22;51043;52.406;9.690;2023-03-21T13:13:30;11.20;99.90
64634;DHT22;51043;52.406;9.690;2023-03-21T13:16:35;11.20;99.90
64634;DHT22;51043;52.406;9.690;2023-03-21T13:24:38;11.10;99.90
64634;DHT22;51043;52.406;9.690;2023-03-21T13:27:20;11.10;99.90
64634;DHT22;51043;52.406;9.690;2023-03-21T13:29:52;11.20;99.90
64634;DHT22;51043;52.406;9.690;2023-03-21T13:32:32;11.20;99.90
64634;DHT22;51043;52.406;9.690;2023-03-21T13:35:03;11.10;99.90
64634;DHT22;51043;52.406;9.690;2023-03-21T13:37:50;11.10;99.90
64634;DHT22;51043;52.406;9.690;2023-03-21T13:40:22;11.00;99.90
64634;DHT22;51043;52.406;9.690;2023-03-21T13:42:53;11.00;99.90
64634;DHT22;51043;52.406;9.690;2023-03-21T13:45:30;10.90;99.90
64634;DHT22;51043;52.406;9.690;2023-03-21T13:48:02;10.80;99.90
64634;DHT22;51043;52.406;9.690;2023-03-21T13:50:48;10.80;99.90
64634;DHT22;51043;52.406;9.690;2023-03-21T13:53:35;10.70;99.90
64634;DHT22;51043;52.406;9.690;2023-03-21T13:56:20;10.60;99.90
64634;DHT22;51043;52.406;9.690;2023-03-21T13:58:53;10.50;99.90
64634;DHT22;51043;52.406;9.690;2023-03-21T14:04:18;10.40;99.90
64634;DHT22;51043;52.406;9.690;2023-03-21T14:07:04;10.40;99.90
64634;DHT22;51043;52.406;9.690;2023-03-21T14:09:45;10.50;99.90
64634;DHT22;51043;52.406;9.690;2023-03-21T14:12:15;10.50;99.90
64634;DHT22;51043;52.406;9.690;2023-03-21T14:14:45;10.50;99.90
64634;DHT22;51043;52.406;9.690;2023-03-21T14:17:27;10.60;99.90
64634;DHT22;51043;52.406;9.690;2023-03-21T14:20:12;10.60;99.90
64634;DHT22;51043;52.406;9.690;2023-03-21T14:22:39;10.60;99.90
64634;DHT22;51043;52.406;9.690;2023-03-21T14:25:11;10.60;99.90
64634;DHT22;51043;52.406;9.690;2023-03-21T14:27:46;10.70;99.90
64634;DHT22;51043;52.406;9.690;2023-03-21T14:30:35;10.60;99.90
64634;DHT22;51043;52.406;9.690;2023-03-21T14:35:54;10.50;99.90
64634;DHT22;51043;52.406;9.690;2023-03-21T14:38:25;10.50;99.90
64634;DHT22;51043;52.406;9.690;2023-03-21T14:40:54;10.50;99.90
64634;DHT22;51043;52.406;9.690;2023-03-21T14:43:22;10.50;99.90
64634;DHT22;51043;52.406;9.690;2023-03-21T14:45:51;10.50;99.90
64634;DHT22;51043;52.406;9.690;2023-03-21T14:48:29;10.50;99.90
64634;DHT22;51043;52.406;9.690;2023-03-21T14:51:01;10.40;99.90
64634;DHT22;51043;52.406;9.690;2023-03-21T14:53:32;10.50;99.90
64634;DHT22;51043;52.406;9.690;2023-03-21T14:58:33;10.50;99.90
64634;DHT22;51043;52.406;9.690;2023-03-21T15:01:05;10.50;99.90
64634;DHT22;51043;52.406;9.690;2023-03-21T15:03:33;10.60;99.90
64634;DHT22;51043;52.406;9.690;2023-03-21T15:06:01;10.60;99.90
64634;DHT22;51043;52.406;9.690;2023-03-21T15:08:28;10.60;99.90
64634;DHT22;51043;52.406;9.690;2023-03-21T15:10:58;10.60;99.90
64634;DHT22;51043;52.406;9.690;2023-03-21T15:13:46;10.60;99.90
64634;DHT22;51043;52.406;9.690;2023-03-21T15:16:16;10.70;99.90
64634;DHT22;51043;52.406;9.690;2023-03-21T15:18:43;10.60;99.90
64634;DHT22;51043;52.406;9.690;2023-03-21T15:21:22;10.60;99.90
64634;DHT22;51043;52.406;9.690;2023-03-21T15:23:58;10.60;99.90
64634;DHT22;51043;52.406;9.690;2023-03-21T15:26:26;10.60;99.90
64634;DHT22;51043;52.406;9.690;2023-03-21T15:28:57;10.50;99.90
64634;DHT22;51043;52.406;9.690;2023-03-21T15:31:28;10.50;99.90
64634;DHT22;51043;52.406;9.690;2023-03-21T15:33:56;10.50;99.90
64634;DHT22;51043;52.406;9.690;2023-03-21T15:36:35;10.60;99.90
64634;DHT22;51043;52.406;9.690;2023-03-21T15:39:06;10.60;99.90
64634;DHT22;51043;52.406;9.690;2023-03-21T15:41:34;10.60;99.90
64634;DHT22;51043;52.406;9.690;2023-03-21T15:44:04;10.60;99.90
64634;DHT22;51043;52.406;9.690;2023-03-21T15:46:38;10.60;99.90
64634;DHT22;51043;52.406;9.690;2023-03-21T15:51:50;10.60;99.90
64634;DHT22;51043;52.406;9.690;2023-03-21T15:57:05;10.70;99.90
64634;DHT22;51043;52.406;9.690;2023-03-21T15:59:41;10.70;99.90
64634;DHT22;51043;52.406;9.690;2023-03-21T16:02:21;10.70;99.90
64634;DHT22;51043;52.406;9.690;2023-03-21T16:05:02;10.60;99.90
64634;DHT22;51043;52.406;9.690;2023-03-21T16:07:32;10.50;99.90
64634;DHT22;51043;52.406;9.690;2023-03-21T16:10:03;10.50;99.90
64634;DHT22;51043;52.406;9.690;2023-03-21T16:12:31;10.50;99.90
64634;DHT22;51043;52.406;9.690;2023-03-21T16:14:59;10.50;99.90
64634;DHT22;51043;52.406;9.690;2023-03-21T16:17:34;10.50;99.90
64634;DHT22;51043;52.406;9.690;2023-03-21T16:20:15;10.50;99.90
64634;DHT22;51043;52.406;9.690;2023-03-21T16:22:43;10.40;99.90
64634;DHT22;51043;52.406;9.690;2023-03-21T16:25:10;10.40;99.90
64634;DHT22;51043;52.406;9.690;2023-03-21T16:27:37;10.50;99.90
64634;DHT22;51043;52.406;9.690;2023-03-21T16:30:05;10.50;99.90
64634;DHT22;51043;52.406;9.690;2023-03-21T16:32:35;10.40;99.90
64634;DHT22;51043;52.406;9.690;2023-03-21T16:35:02;10.40;99.90
64634;DHT22;51043;52.406;9.690;2023-03-21T16:37:29;10.40;99.90
64634;DHT22;51043;52.406;9.690;2023-03-21T16:39:56;10.40;99.90
64634;DHT22;51043;52.406;9.690;2023-03-21T16:42:23;10.40;99.90
64634;DHT22;51043;52.406;9.690;2023-03-21T16:44:50;10.40;99.90
64634;DHT22;51043;52.406;9.690;2023-03-21T16:47:19;10.50;99.90
64634;DHT22;51043;52.406;9.690;2023-03-21T16:49:46;10.40;99.90
64634;DHT22;51043;52.406;9.690;2023-03-21T16:52:13;10.40;99.90
64634;DHT22;51043;52.406;9.690;2023-03-21T16:54:41;10.30;99.90
64634;DHT22;51043;52.406;9.690;2023-03-21T16:57:21;10.30;99.90
64634;DHT22;51043;52.406;9.690;2023-03-21T16:59:54;10.30;99.90
64634;DHT22;51043;52.406;9.690;2023-03-21T17:02:22;10.40;99.90
64634;DHT22;51043;52.406;9.690;2023-03-21T17:04:50;10.40;99.90
64634;DHT22;51043;52.406;9.690;2023-03-21T17:07:17;10.40;99.90
64634;DHT22;51043;52.406;9.690;2023-03-21T17:09:44;10.40;99.90
64634;DHT22;51043;52.406;9.690;2023-03-21T17:12:12;10.40;99.90
64634;DHT22;51043;52.406;9.690;2023-03-21T17:14:42;10.50;99.90
64634;DHT22;51043;52.406;9.690;2023-03-21T17:17:13;10.40;99.90
64634;DHT22;51043;52.406;9.690;2023-03-21T17:19:41;10.40;99.90
64634;DHT22;51043;52.406;9.690;2023-03-21T17:22:08;10.40;99.90
64634;DHT22;51043;52.406;9.690;2023-03-21T17:24:36;10.40;99.90
64634;DHT22;51043;52.406;9.690;2023-03-21T17:27:04;10.40;99.90
64634;DHT22;51043;52.406;9.690;2023-03-21T17:29:33;10.40;99.90
64634;DHT22;51043;52.406;9.690;2023-03-21T17:32:00;10.40;99.90
64634;DHT22;51043;52.406;9.690;2023-03-21T17:34:26;10.40;99.90
64634;DHT22;51043;52.406;9.690;2023-03-21T17:36:53;10.40;99.90
64634;DHT22;51043;52.406;9.690;2023-03-21T17:39:22;10.30;99.90
64634;DHT22;51043;52.406;9.690;2023-03-21T17:41:50;10.30;99.90